Ely, NV

3:48 AM PDT on August 02, 2015 (GMT -0700)
MesoWest | | Change Station
CLOSE
Current Station
Personal Weather Station
Location: McGill, NV
Elevation: 5642 ft
Nearby Weather Stations

Elev 5642 ft 39.46 °N, 114.51 °W | Updated 1 hour ago

Mostly Cloudy
Mostly Cloudy
69 °F
Feels Like 69 °F
N
3
Wind Variable Wind from WSW
Gusts 5.0 mph

Today
High -- | Low -- °F
--% Chance of Precip.
Yesterday
High -- | Low -- °F
Precip. -- in
5:38 AM 7:49 PM
Waning Gibbous, 94% visible
Pressure 29.86 in
Visibility 10.0 miles
Clouds Few 12000 ft
Dew Point 43 °F
Humidity 38%
Rainfall in
Snow Depth Not available.
UV 0 out of 12
Pollen 6.20 out of 12
Air Quality Not available.
Flu Activity Not available.
METAR KELY 020953Z AUTO 03003KT 10SM FEW120 19/06 A3021 RMK AO2 SLP111 T01890056

More Conditions Fewer Conditions

Pressure 29.86 in
Visibility 10.0 miles
Clouds Few 12000 ft
Dew Point 43 °F
Humidity 38%
Rainfall in
Snow Depth Not available.
UV 0 out of 12
Pollen 6.20 out of 12
Air Quality Not available.
Flu Activity Not available.
METAR KELY 020953Z AUTO 03003KT 10SM FEW120 19/06 A3021 RMK AO2 SLP111 T01890056

More Conditions Fewer Conditions

10-Day Weather Forecast

×

Almanac

Astronomy

Aug. 02, 2015 Rise Set
Actual Time
Civil Twilight
Nautical Twilight
Astronomical Twilight
Moon
Length of Visible Light
Length of Day
Tomorrow will be .
, % of the Moon is Illuminated

Today's Extremes

State Highs State Lows

Community

WunderPhotos

Upload Photos

1,843,218 photos uploaded!

WunderBlogs® & News

Nearby

Air Quality

  Air Quality AQ Index Pollutant
Not available.

Snow Depth

Station Depth Elevation

Earthquake Activity

City Distance Mag. Time & Date
Minimum magnitude displayed is 2.5.

Coastal Water Temperatures

Place Temperature

Stations

Nearby Weather Stations

Station Location Temp. Windchill Dew Point Humidity Wind Precip. Elev Updated Type